Time,TemperatureF,DewpointF,PressureIn,WindDirection,WindDirectionDegrees,WindSpeedMPH,WindSpeedGustMPH,Humidity,HourlyPrecipIn,Conditions,Clouds,dailyrainin,SoftwareType,DateUTC
2013-02-17 00:00:00,28.4,17.4,29.85,WNW,294,10.0,19.0,63,0.00,,,0.00,Wunderground v.1.15,2013-02-17 05:00:00,
2013-02-17 00:05:00,28.5,17.5,29.84,WNW,290,11.0,19.0,63,0.00,,,0.00,Wunderground v.1.15,2013-02-17 05:05:00,
2013-02-17 00:10:00,28.4,17.4,29.84,NW,323,13.0,13.0,63,0.00,,,0.00,Wunderground v.1.15,2013-02-17 05:10:00,
2013-02-17 00:15:00,28.4,17.4,29.84,West,276,11.0,13.0,63,0.00,,,0.00,Wunderground v.1.15,2013-02-17 05:15:00,
2013-02-17 00:20:00,28.3,17.3,29.84,North,355,11.0,12.0,63,0.00,,,0.00,Wunderground v.1.15,2013-02-17 05:20:00,
2013-02-17 00:30:00,28.2,17.2,29.84,WNW,292,11.0,11.0,63,0.00,,,0.00,Wunderground v.1.15,2013-02-17 05:30:00,
2013-02-17 00:35:00,28.1,17.1,29.84,West,263,10.0,12.0,63,0.00,,,0.00,Wunderground v.1.15,2013-02-17 05:35:00,
2013-02-17 00:40:00,28.1,17.1,29.84,WSW,252,10.0,10.0,63,0.00,,,0.00,Wunderground v.1.15,2013-02-17 05:40:00,
2013-02-17 00:45:00,28.1,17.5,29.85,WNW,288,10.0,10.0,64,0.00,,,0.00,Wunderground v.1.15,2013-02-17 05:45:00,
2013-02-17 00:50:00,28.0,17.0,29.84,West,277,10.0,14.0,63,0.00,,,0.00,Wunderground v.1.15,2013-02-17 05:50:00,
2013-02-17 00:55:00,27.9,16.9,29.84,West,271,10.0,14.0,63,0.00,,,0.00,Wunderground v.1.15,2013-02-17 05:55:00,
2013-02-17 01:00:00,27.9,16.9,29.84,WNW,290,11.0,11.0,63,0.00,,,0.00,Wunderground v.1.15,2013-02-17 06:00:00,
2013-02-17 01:10:00,27.8,16.8,29.85,WNW,296,9.0,9.0,63,0.00,,,0.00,Wunderground v.1.15,2013-02-17 06:10:00,
2013-02-17 01:15:00,27.6,16.6,29.85,West,270,9.0,10.0,63,0.00,,,0.00,Wunderground v.1.15,2013-02-17 06:15:00,
2013-02-17 01:20:00,27.6,16.6,29.85,WNW,300,10.0,15.0,63,0.00,,,0.00,Wunderground v.1.15,2013-02-17 06:20:00,
2013-02-17 01:25:00,27.6,16.6,29.85,WNW,284,11.0,15.0,63,0.00,,,0.00,Wunderground v.1.15,2013-02-17 06:25:00,
2013-02-17 01:30:00,27.4,16.8,29.85,WSW,255,9.0,9.0,64,0.00,,,0.00,Wunderground v.1.15,2013-02-17 06:30:00,
2013-02-17 01:35:00,27.3,16.7,29.85,WSW,254,8.0,9.0,64,0.00,,,0.00,Wunderground v.1.15,2013-02-17 06:35:00,
2013-02-17 01:45:00,27.1,16.5,29.86,West,272,9.0,9.0,64,0.00,,,0.00,Wunderground v.1.15,2013-02-17 06:45:00,
2013-02-17 01:50:00,26.9,16.7,29.86,NW,325,9.0,9.0,65,0.00,,,0.00,Wunderground v.1.15,2013-02-17 06:50:00,
2013-02-17 01:55:00,26.8,16.2,29.86,WNW,288,8.0,9.0,64,0.00,,,0.00,Wunderground v.1.15,2013-02-17 06:55:00,
2013-02-17 02:00:00,26.6,16.4,29.86,West,268,6.0,7.0,65,0.00,,,0.00,Wunderground v.1.15,2013-02-17 07:00:00,
2013-02-17 02:10:00,26.5,16.3,29.86,West,265,7.0,7.0,65,0.00,,,0.00,Wunderground v.1.15,2013-02-17 07:10:00,
2013-02-17 02:20:00,26.2,16.0,29.86,WNW,297,7.0,7.0,65,0.00,,,0.00,Wunderground v.1.15,2013-02-17 07:20:00,
2013-02-17 02:25:00,26.2,16.0,29.86,WNW,288,7.0,7.0,65,0.00,,,0.00,Wunderground v.1.15,2013-02-17 07:25:00,
2013-02-17 02:30:00,26.2,16.0,29.86,WNW,288,7.0,7.0,65,0.00,,,0.00,Wunderground v.1.15,2013-02-17 07:30:00,
2013-02-17 02:35:00,26.1,15.9,29.86,WNW,298,6.0,11.0,65,0.00,,,0.00,Wunderground v.1.15,2013-02-17 07:35:00,
2013-02-17 02:40:00,26.0,15.8,29.86,NW,304,7.0,11.0,65,0.00,,,0.00,Wunderground v.1.15,2013-02-17 07:40:00,
2013-02-17 02:50:00,25.8,16.0,29.86,West,272,6.0,6.0,66,0.00,,,0.00,Wunderground v.1.15,2013-02-17 07:50:00,
2013-02-17 02:55:00,25.6,15.8,29.86,WNW,284,5.0,6.0,66,0.00,,,0.00,Wunderground v.1.15,2013-02-17 07:55:00,
2013-02-17 03:00:00,25.4,16.0,29.86,West,275,6.0,8.0,67,0.00,,,0.00,Wunderground v.1.15,2013-02-17 08:00:00,
2013-02-17 03:10:00,25.3,15.5,29.86,West,274,5.0,5.0,66,0.00,,,0.00,Wunderground v.1.15,2013-02-17 08:10:00,
2013-02-17 03:15:00,25.4,15.6,29.86,WNW,288,6.0,6.0,66,0.00,,,0.00,Wunderground v.1.15,2013-02-17 08:15:00,
2013-02-17 03:25:00,25.2,15.8,29.86,NW,324,4.0,5.0,67,0.00,,,0.00,Wunderground v.1.15,2013-02-17 08:25:00,
2013-02-17 03:30:00,25.0,15.6,29.85,NW,316,3.0,3.0,67,0.00,,,0.00,Wunderground v.1.15,2013-02-17 08:30:00,
2013-02-17 03:35:00,24.8,15.4,29.85,NNW,328,3.0,3.0,67,0.00,,,0.00,Wunderground v.1.15,2013-02-17 08:35:00,
2013-02-17 03:40:00,24.7,15.3,29.85,NW,309,3.0,6.0,67,0.00,,,0.00,Wunderground v.1.15,2013-02-17 08:40:00,
2013-02-17 03:45:00,24.6,15.2,29.85,WNW,301,3.0,6.0,67,0.00,,,0.00,Wunderground v.1.15,2013-02-17 08:45:00,
2013-02-17 03:55:00,24.4,14.7,29.85,NW,314,3.0,3.0,66,0.00,,,0.00,Wunderground v.1.15,2013-02-17 08:55:00,
2013-02-17 04:00:00,24.3,14.6,29.85,WNW,292,3.0,4.0,66,0.00,,,0.00,Wunderground v.1.15,2013-02-17 09:00:00,
2013-02-17 04:10:00,24.2,14.5,29.85,West,279,3.0,5.0,66,0.00,,,0.00,Wunderground v.1.15,2013-02-17 09:10:00,
2013-02-17 04:15:00,24.1,14.4,29.85,NNW,334,4.0,7.0,66,0.00,,,0.00,Wunderground v.1.15,2013-02-17 09:15:00,
2013-02-17 04:20:00,24.3,14.2,29.85,NW,313,4.0,5.0,65,0.00,,,0.00,Wunderground v.1.15,2013-02-17 09:20:00,
2013-02-17 04:30:00,24.2,13.8,29.86,West,281,3.0,3.0,64,0.00,,,0.00,Wunderground v.1.15,2013-02-17 09:30:00,
2013-02-17 04:35:00,24.0,13.9,29.86,WNW,299,3.0,3.0,65,0.00,,,0.00,Wunderground v.1.15,2013-02-17 09:35:00,
2013-02-17 04:40:00,23.8,13.7,29.86,West,277,2.0,3.0,65,0.00,,,0.00,Wunderground v.1.15,2013-02-17 09:40:00,
2013-02-17 04:45:00,23.7,13.6,29.87,NW,308,2.0,3.0,65,0.00,,,0.00,Wunderground v.1.15,2013-02-17 09:45:00,
2013-02-17 04:50:00,23.6,13.5,29.86,WNW,303,2.0,2.0,65,0.00,,,0.00,Wunderground v.1.15,2013-02-17 09:50:00,
2013-02-17 04:55:00,23.6,13.2,29.86,NW,304,3.0,3.0,64,0.00,,,0.00,Wunderground v.1.15,2013-02-17 09:55:00,
2013-02-17 05:00:00,23.6,13.5,29.87,West,263,3.0,4.0,65,0.00,,,0.00,Wunderground v.1.15,2013-02-17 10:00:00,
2013-02-17 05:10:00,23.6,13.9,29.87,West,271,4.0,4.0,66,0.00,,,0.00,Wunderground v.1.15,2013-02-17 10:10:00,
2013-02-17 05:15:00,23.6,13.9,29.87,West,277,4.0,4.0,66,0.00,,,0.00,Wunderground v.1.15,2013-02-17 10:15:00,
2013-02-17 05:20:00,23.7,13.6,29.87,WNW,298,4.0,4.0,65,0.00,,,0.00,Wunderground v.1.15,2013-02-17 10:20:00,
2013-02-17 05:25:00,23.6,13.5,29.87,WNW,293,4.0,4.0,65,0.00,,,0.00,Wunderground v.1.15,2013-02-17 10:25:00,
2013-02-17 05:30:00,23.5,13.5,29.87,WNW,302,3.0,3.0,65,0.00,,,0.00,Wunderground v.1.15,2013-02-17 10:30:00,
2013-02-17 05:35:00,23.4,13.4,29.87,WNW,284,3.0,4.0,65,0.00,,,0.00,Wunderground v.1.15,2013-02-17 10:35:00,
2013-02-17 05:40:00,23.5,12.7,29.87,NW,323,5.0,12.0,63,0.00,,,0.00,Wunderground v.1.15,2013-02-17 10:40:00,
2013-02-17 05:45:00,23.6,12.8,29.87,WNW,283,5.0,12.0,63,0.00,,,0.00,Wunderground v.1.15,2013-02-17 10:45:00,
2013-02-17 05:50:00,23.5,12.7,29.87,West,281,3.0,3.0,63,0.00,,,0.00,Wunderground v.1.15,2013-02-17 10:50:00,
2013-02-17 05:55:00,23.4,12.6,29.87,NW,321,2.0,3.0,63,0.00,,,0.00,Wunderground v.1.15,2013-02-17 10:55:00,
2013-02-17 06:00:00,23.2,12.1,29.87,West,277,2.0,2.0,62,0.00,,,0.00,Wunderground v.1.15,2013-02-17 11:00:00,
2013-02-17 06:10:00,23.2,11.7,29.87,West,279,4.0,7.0,61,0.00,,,0.00,Wunderground v.1.15,2013-02-17 11:10:00,
2013-02-17 06:15:00,23.3,11.8,29.88,West,265,5.0,7.0,61,0.00,,,0.00,Wunderground v.1.15,2013-02-17 11:15:00,
2013-02-17 06:20:00,23.3,11.8,29.88,West,273,6.0,6.0,61,0.00,,,0.00,Wunderground v.1.15,2013-02-17 11:20:00,
2013-02-17 06:25:00,23.3,12.2,29.88,West,270,5.0,6.0,62,0.00,,,0.00,Wunderground v.1.15,2013-02-17 11:25:00,
2013-02-17 06:35:00,23.4,11.9,29.88,West,275,9.0,12.0,61,0.00,,,0.00,Wunderground v.1.15,2013-02-17 11:35:00,
2013-02-17 06:40:00,23.4,11.5,29.88,WNW,286,9.0,9.0,60,0.00,,,0.00,Wunderground v.1.15,2013-02-17 11:40:00,
2013-02-17 06:45:00,23.4,11.5,29.88,WSW,254,9.0,9.0,60,0.00,,,0.00,Wunderground v.1.15,2013-02-17 11:45:00,
2013-02-17 06:50:00,23.4,11.9,29.88,WNW,299,9.0,9.0,61,0.00,,,0.00,Wunderground v.1.15,2013-02-17 11:50:00,
2013-02-17 06:55:00,23.4,11.5,29.88,WNW,282,10.0,10.0,60,0.00,,,0.00,Wunderground v.1.15,2013-02-17 11:55:00,
2013-02-17 07:00:00,23.4,11.2,29.89,WNW,289,9.0,9.0,59,0.00,,,0.00,Wunderground v.1.15,2013-02-17 12:00:00,
2013-02-17 07:10:00,23.6,10.6,29.89,WNW,286,9.0,9.0,57,0.00,,,0.00,Wunderground v.1.15,2013-02-17 12:10:00,
2013-02-17 07:15:00,23.6,10.2,29.89,West,269,9.0,9.0,56,0.00,,,0.00,Wunderground v.1.15,2013-02-17 12:15:00,
2013-02-17 07:20:00,23.7,10.3,29.90,WNW,294,9.0,9.0,56,0.00,,,0.00,Wunderground v.1.15,2013-02-17 12:20:00,
2013-02-17 07:25:00,23.7,10.3,29.90,NW,323,9.0,10.0,56,0.00,,,0.00,Wunderground v.1.15,2013-02-17 12:25:00,
2013-02-17 07:30:00,23.6,9.8,29.90,NW,305,8.0,8.0,55,0.00,,,0.00,Wunderground v.1.15,2013-02-17 12:30:00,
2013-02-17 07:40:00,23.8,10.0,29.90,West,281,7.0,9.0,55,0.00,,,0.00,Wunderground v.1.15,2013-02-17 12:40:00,
2013-02-17 07:45:00,23.8,10.0,29.90,West,267,7.0,11.0,55,0.00,,,0.00,Wunderground v.1.15,2013-02-17 12:45:00,
2013-02-17 07:50:00,24.0,10.6,29.91,West,280,8.0,12.0,56,0.00,,,0.00,Wunderground v.1.15,2013-02-17 12:50:00,
2013-02-17 07:55:00,24.2,10.3,29.91,NW,305,8.0,12.0,55,0.00,,,0.00,Wunderground v.1.15,2013-02-17 12:55:00,
2013-02-17 08:00:00,24.5,11.0,29.91,West,259,7.0,9.0,56,0.00,,,0.00,Wunderground v.1.15,2013-02-17 13:00:00,
2013-02-17 08:10:00,25.0,11.5,29.92,NNW,348,8.0,8.0,56,0.00,,,0.00,Wunderground v.1.15,2013-02-17 13:10:00,
2013-02-17 08:15:00,25.3,11.8,29.92,North,355,7.0,8.0,56,0.00,,,0.00,Wunderground v.1.15,2013-02-17 13:15:00,
2013-02-17 08:20:00,25.6,11.7,29.92,WNW,292,7.0,12.0,55,0.00,,,0.00,Wunderground v.1.15,2013-02-17 13:20:00,
2013-02-17 08:25:00,25.8,11.8,29.92,WNW,283,8.0,12.0,55,0.00,,,0.00,Wunderground v.1.15,2013-02-17 13:25:00,
2013-02-17 08:30:00,25.7,11.3,29.92,NW,312,9.0,10.0,54,0.00,,,0.00,Wunderground v.1.15,2013-02-17 13:30:00,
2013-02-17 08:35:00,25.9,11.9,29.93,West,270,9.0,10.0,55,0.00,,,0.00,Wunderground v.1.15,2013-02-17 13:35:00,
2013-02-17 08:45:00,26.5,12.5,29.93,West,269,7.0,8.0,55,0.00,,,0.00,Wunderground v.1.15,2013-02-17 13:45:00,
2013-02-17 08:50:00,26.7,12.3,29.93,West,277,7.0,10.0,54,0.00,,,0.00,Wunderground v.1.15,2013-02-17 13:50:00,
2013-02-17 08:55:00,26.8,11.9,29.93,WNW,290,7.0,10.0,53,0.00,,,0.00,Wunderground v.1.15,2013-02-17 13:55:00,
2013-02-17 09:00:00,27.1,12.6,29.93,NNE,16,7.0,7.0,54,0.00,,,0.00,Wunderground v.1.15,2013-02-17 14:00:00,
2013-02-17 09:10:00,27.2,11.9,29.93,WSW,244,9.0,9.0,52,0.00,,,0.00,Wunderground v.1.15,2013-02-17 14:10:00,
2013-02-17 09:20:00,28.0,13.1,29.93,WNW,296,9.0,9.0,53,0.00,,,0.00,Wunderground v.1.15,2013-02-17 14:20:00,
2013-02-17 09:25:00,27.9,12.5,29.93,West,279,8.0,9.0,52,0.00,,,0.00,Wunderground v.1.15,2013-02-17 14:25:00,
2013-02-17 09:30:00,28.2,12.4,29.94,WNW,295,9.0,9.0,51,0.00,,,0.00,Wunderground v.1.15,2013-02-17 14:30:00,
2013-02-17 09:35:00,28.4,12.6,29.94,North,5,10.0,16.0,51,0.00,,,0.00,Wunderground v.1.15,2013-02-17 14:35:00,
2013-02-17 09:40:00,28.9,13.5,29.94,NNE,26,9.0,9.0,52,0.00,,,0.00,Wunderground v.1.15,2013-02-17 14:40:00,
2013-02-17 09:45:00,28.7,11.9,29.94,NW,319,8.0,9.0,49,0.00,,,0.00,Wunderground v.1.15,2013-02-17 14:45:00,
2013-02-17 09:50:00,29.0,13.6,29.94,West,273,8.0,13.0,52,0.00,,,0.00,Wunderground v.1.15,2013-02-17 14:50:00,
2013-02-17 09:55:00,28.7,12.8,29.94,West,268,9.0,13.0,51,0.00,,,0.00,Wunderground v.1.15,2013-02-17 14:55:00,
2013-02-17 10:00:00,27.2,11.4,29.94,West,263,14.0,16.0,51,0.00,,,0.00,Wunderground v.1.15,2013-02-17 15:00:00,
2013-02-17 10:10:00,28.1,13.1,29.95,WNW,291,11.0,11.0,53,0.00,,,0.00,Wunderground v.1.15,2013-02-17 15:10:00,
2013-02-17 10:20:00,28.5,11.3,29.95,West,274,11.0,12.0,48,0.00,,,0.00,Wunderground v.1.15,2013-02-17 15:20:00,
2013-02-17 10:25:00,28.6,11.8,29.95,West,264,11.0,12.0,49,0.00,,,0.00,Wunderground v.1.15,2013-02-17 15:25:00,
2013-02-17 10:30:00,28.6,11.4,29.95,NNW,327,9.0,9.0,48,0.00,,,0.00,Wunderground v.1.15,2013-02-17 15:30:00,
2013-02-17 10:35:00,28.5,11.7,29.95,SW,225,9.0,9.0,49,0.00,,,0.00,Wunderground v.1.15,2013-02-17 15:35:00,
2013-02-17 10:40:00,28.4,11.2,29.95,WNW,302,8.0,8.0,48,0.00,,,0.00,Wunderground v.1.15,2013-02-17 15:40:00,
2013-02-17 10:45:00,28.8,12.5,29.95,NNW,327,8.0,9.0,50,0.00,,,0.00,Wunderground v.1.15,2013-02-17 15:45:00,
2013-02-17 10:55:00,29.3,12.0,29.95,West,263,11.0,12.0,48,0.00,,,0.00,Wunderground v.1.15,2013-02-17 15:55:00,
2013-02-17 11:00:00,29.1,11.4,29.96,SW,236,12.0,12.0,47,0.00,,,0.00,Wunderground v.1.15,2013-02-17 16:00:00,
2013-02-17 11:10:00,27.8,12.9,29.96,NNW,333,12.0,12.0,53,0.00,,,0.00,Wunderground v.1.15,2013-02-17 16:10:00,
2013-02-17 11:15:00,28.8,13.8,29.96,WNW,286,10.0,24.0,53,0.00,,,0.00,Wunderground v.1.15,2013-02-17 16:15:00,
2013-02-17 11:25:00,28.4,13.9,29.96,West,273,15.0,15.0,54,0.00,,,0.00,Wunderground v.1.15,2013-02-17 16:25:00,
2013-02-17 11:30:00,29.0,15.2,29.96,NNW,344,13.0,13.0,56,0.00,,,0.00,Wunderground v.1.15,2013-02-17 16:30:00,
2013-02-17 11:35:00,29.5,14.5,29.96,WNW,288,11.0,13.0,53,0.00,,,0.00,Wunderground v.1.15,2013-02-17 16:35:00,
2013-02-17 11:40:00,29.6,14.5,29.96,West,270,10.0,12.0,53,0.00,,,0.00,Wunderground v.1.15,2013-02-17 16:40:00,
2013-02-17 11:45:00,28.5,14.4,29.96,West,267,11.0,12.0,55,0.00,,,0.00,Wunderground v.1.15,2013-02-17 16:45:00,
2013-02-17 11:50:00,28.2,13.7,29.96,West,267,11.0,11.0,54,0.00,,,0.00,Wunderground v.1.15,2013-02-17 16:50:00,
2013-02-17 12:00:00,27.4,13.3,29.97,WNW,284,13.0,15.0,55,0.00,,,0.00,Wunderground v.1.15,2013-02-17 17:00:00,
2013-02-17 12:10:00,29.1,14.9,29.96,NW,314,8.0,8.0,55,0.00,,,0.00,Wunderground v.1.15,2013-02-17 17:10:00,
2013-02-17 12:15:00,30.2,15.1,29.96,NNW,342,8.0,8.0,53,0.00,,,0.00,Wunderground v.1.15,2013-02-17 17:15:00,
2013-02-17 12:20:00,30.9,13.5,29.96,WNW,294,7.0,8.0,48,0.00,,,0.00,Wunderground v.1.15,2013-02-17 17:20:00,
2013-02-17 12:30:00,29.0,11.7,29.96,West,274,11.0,15.0,48,0.00,,,0.00,Wunderground v.1.15,2013-02-17 17:30:00,
2013-02-17 12:35:00,28.1,11.4,29.96,West,281,14.0,22.0,49,0.00,,,0.00,Wunderground v.1.15,2013-02-17 17:35:00,
2013-02-17 12:40:00,28.3,11.1,29.96,West,260,14.0,14.0,48,0.00,,,0.00,Wunderground v.1.15,2013-02-17 17:40:00,
2013-02-17 12:45:00,28.7,11.5,29.96,West,263,12.0,14.0,48,0.00,,,0.00,Wunderground v.1.15,2013-02-17 17:45:00,
2013-02-17 12:50:00,28.3,10.1,29.96,WNW,286,12.0,12.0,46,0.00,,,0.00,Wunderground v.1.15,2013-02-17 17:50:00,
2013-02-17 12:55:00,28.8,11.6,29.96,NNW,342,11.0,12.0,48,0.00,,,0.00,Wunderground v.1.15,2013-02-17 17:55:00,
2013-02-17 13:00:00,28.5,10.8,29.96,West,266,9.0,9.0,47,0.00,,,0.00,Wunderground v.1.15,2013-02-17 18:00:00,
2013-02-17 13:10:00,28.6,10.9,29.96,West,269,10.0,10.0,47,0.00,,,0.00,Wunderground v.1.15,2013-02-17 18:10:00,
2013-02-17 13:15:00,28.7,10.5,29.96,West,267,10.0,12.0,46,0.00,,,0.00,Wunderground v.1.15,2013-02-17 18:15:00,
2013-02-17 13:20:00,28.5,9.8,29.96,NW,312,9.0,9.0,45,0.00,,,0.00,Wunderground v.1.15,2013-02-17 18:20:00,
2013-02-17 13:25:00,28.5,10.3,29.96,WNW,297,10.0,10.0,46,0.00,,,0.00,Wunderground v.1.15,2013-02-17 18:25:00,
2013-02-17 13:30:00,29.2,10.0,29.95,WSW,257,10.0,14.0,44,0.00,,,0.00,Wunderground v.1.15,2013-02-17 18:30:00,
2013-02-17 13:35:00,29.2,8.9,29.95,WNW,283,10.0,14.0,42,0.00,,,0.00,Wunderground v.1.15,2013-02-17 18:35:00,
2013-02-17 13:40:00,28.8,9.1,29.96,West,265,10.0,14.0,43,0.00,,,0.00,Wunderground v.1.15,2013-02-17 18:40:00,
2013-02-17 13:45:00,29.4,9.6,29.96,West,273,14.0,14.0,43,0.00,,,0.00,Wunderground v.1.15,2013-02-17 18:45:00,
2013-02-17 13:50:00,30.0,11.2,29.96,West,277,13.0,13.0,45,0.00,,,0.00,Wunderground v.1.15,2013-02-17 18:50:00,
2013-02-17 13:55:00,30.2,8.7,29.96,West,269,11.0,13.0,40,0.00,,,0.00,Wunderground v.1.15,2013-02-17 18:55:00,
2013-02-17 14:00:00,29.1,8.8,29.96,West,277,13.0,20.0,42,0.00,,,0.00,Wunderground v.1.15,2013-02-17 19:00:00,
2013-02-17 14:10:00,29.7,10.9,29.96,West,260,17.0,17.0,45,0.00,,,0.00,Wunderground v.1.15,2013-02-17 19:10:00,
2013-02-17 14:15:00,29.8,11.0,29.96,West,269,13.0,17.0,45,0.00,,,0.00,Wunderground v.1.15,2013-02-17 19:15:00,
2013-02-17 14:20:00,29.2,10.0,29.97,West,281,11.0,15.0,44,0.00,,,0.00,Wunderground v.1.15,2013-02-17 19:20:00,
2013-02-17 14:25:00,28.0,11.7,29.97,WNW,282,13.0,17.0,50,0.00,,,0.00,Wunderground v.1.15,2013-02-17 19:25:00,
2013-02-17 14:30:00,27.3,13.2,29.97,West,267,16.0,16.0,55,0.00,,,0.00,Wunderground v.1.15,2013-02-17 19:30:00,
2013-02-17 14:40:00,26.6,14.2,29.98,WNW,297,12.0,13.0,59,0.00,,,0.00,Wunderground v.1.15,2013-02-17 19:40:00,
2013-02-17 14:45:00,26.8,14.0,29.98,West,262,12.0,13.0,58,0.00,,,0.00,Wunderground v.1.15,2013-02-17 19:45:00,
2013-02-17 14:50:00,27.5,13.4,29.98,WNW,284,10.0,10.0,55,0.00,,,0.00,Wunderground v.1.15,2013-02-17 19:50:00,
2013-02-17 14:55:00,27.8,12.9,29.98,NW,324,9.0,10.0,53,0.00,,,0.00,Wunderground v.1.15,2013-02-17 19:55:00,
2013-02-17 15:00:00,27.9,13.0,29.98,NW,313,7.0,9.0,53,0.00,,,0.00,Wunderground v.1.15,2013-02-17 20:00:00,
2013-02-17 15:10:00,28.1,12.7,29.98,West,261,8.0,16.0,52,0.00,,,0.00,Wunderground v.1.15,2013-02-17 20:10:00,
2013-02-17 15:15:00,28.2,13.2,29.98,West,265,13.0,16.0,53,0.00,,,0.00,Wunderground v.1.15,2013-02-17 20:15:00,
2013-02-17 15:20:00,28.8,12.9,29.98,WNW,294,13.0,16.0,51,0.00,,,0.00,Wunderground v.1.15,2013-02-17 20:20:00,
2013-02-17 15:25:00,29.2,11.9,29.98,West,276,11.0,16.0,48,0.00,,,0.00,Wunderground v.1.15,2013-02-17 20:25:00,
2013-02-17 15:30:00,28.7,11.0,29.98,West,272,14.0,14.0,47,0.00,,,0.00,Wunderground v.1.15,2013-02-17 20:30:00,
2013-02-17 15:35:00,28.5,11.7,29.99,NW,317,14.0,14.0,49,0.00,,,0.00,Wunderground v.1.15,2013-02-17 20:35:00,
2013-02-17 15:45:00,27.5,13.0,30.00,West,263,12.0,19.0,54,0.00,,,0.00,Wunderground v.1.15,2013-02-17 20:45:00,
2013-02-17 15:50:00,26.8,14.4,30.00,NNE,28,13.0,13.0,59,0.00,,,0.00,Wunderground v.1.15,2013-02-17 20:50:00,
2013-02-17 15:55:00,26.9,15.2,30.00,WNW,285,11.0,13.0,61,0.00,,,0.00,Wunderground v.1.15,2013-02-17 20:55:00,
2013-02-17 16:00:00,26.7,13.5,30.00,NNW,333,9.0,9.0,57,0.00,,,0.00,Wunderground v.1.15,2013-02-17 21:00:00,
2013-02-17 16:10:00,26.9,13.3,30.00,West,270,11.0,13.0,56,0.00,,,0.00,Wunderground v.1.15,2013-02-17 21:10:00,
2013-02-17 16:15:00,27.6,13.1,30.00,WNW,297,10.0,18.0,54,0.00,,,0.00,Wunderground v.1.15,2013-02-17 21:15:00,
2013-02-17 16:20:00,27.3,12.4,30.01,WNW,290,12.0,12.0,53,0.00,,,0.00,Wunderground v.1.15,2013-02-17 21:20:00,
2013-02-17 16:25:00,27.0,12.5,30.01,WNW,292,12.0,12.0,54,0.00,,,0.00,Wunderground v.1.15,2013-02-17 21:25:00,
2013-02-17 16:30:00,26.6,11.7,30.01,NW,306,11.0,11.0,53,0.00,,,0.00,Wunderground v.1.15,2013-02-17 21:30:00,
2013-02-17 16:35:00,26.4,12.0,30.01,WNW,282,11.0,13.0,54,0.00,,,0.00,Wunderground v.1.15,2013-02-17 21:35:00,
2013-02-17 16:40:00,26.3,11.5,30.02,West,272,13.0,13.0,53,0.00,,,0.00,Wunderground v.1.15,2013-02-17 21:40:00,
2013-02-17 16:50:00,26.5,12.1,30.02,WNW,297,11.0,11.0,54,0.00,,,0.00,Wunderground v.1.15,2013-02-17 21:50:00,
2013-02-17 16:55:00,26.8,10.6,30.02,West,277,9.0,11.0,50,0.00,,,0.00,Wunderground v.1.15,2013-02-17 21:55:00,
2013-02-17 17:00:00,26.6,10.0,30.03,NW,313,10.0,10.0,49,0.00,,,0.00,Wunderground v.1.15,2013-02-17 22:00:00,
2013-02-17 17:10:00,26.3,9.7,30.03,West,260,12.0,16.0,49,0.00,,,0.00,Wunderground v.1.15,2013-02-17 22:10:00,
2013-02-17 17:20:00,26.0,9.4,30.04,West,269,13.0,16.0,49,0.00,,,0.00,Wunderground v.1.15,2013-02-17 22:20:00,
2013-02-17 17:25:00,25.9,9.3,30.04,WNW,290,11.0,17.0,49,0.00,,,0.00,Wunderground v.1.15,2013-02-17 22:25:00,
2013-02-17 17:30:00,25.8,9.7,30.05,West,268,10.0,10.0,50,0.00,,,0.00,Wunderground v.1.15,2013-02-17 22:30:00,
2013-02-17 17:35:00,25.7,10.0,30.05,West,277,11.0,14.0,51,0.00,,,0.00,Wunderground v.1.15,2013-02-17 22:35:00,
2013-02-17 17:40:00,25.3,11.0,30.05,West,279,10.0,13.0,54,0.00,,,0.00,Wunderground v.1.15,2013-02-17 22:40:00,
2013-02-17 17:45:00,25.0,11.5,30.05,WSW,253,9.0,13.0,56,0.00,,,0.00,Wunderground v.1.15,2013-02-17 22:45:00,
2013-02-17 17:55:00,24.8,10.9,30.06,WNW,286,8.0,9.0,55,0.00,,,0.00,Wunderground v.1.15,2013-02-17 22:55:00,
2013-02-17 18:00:00,24.8,10.5,30.06,WSW,257,8.0,8.0,54,0.00,,,0.00,Wunderground v.1.15,2013-02-17 23:00:00,
2013-02-17 18:10:00,24.8,10.5,30.06,WNW,294,8.0,8.0,54,0.00,,,0.00,Wunderground v.1.15,2013-02-17 23:10:00,
2013-02-17 18:15:00,24.8,10.1,30.06,WNW,291,7.0,8.0,53,0.00,,,0.00,Wunderground v.1.15,2013-02-17 23:15:00,
2013-02-17 18:20:00,24.9,10.6,30.07,West,265,8.0,9.0,54,0.00,,,0.00,Wunderground v.1.15,2013-02-17 23:20:00,
2013-02-17 18:25:00,24.8,11.3,30.07,NW,305,10.0,10.0,56,0.00,,,0.00,Wunderground v.1.15,2013-02-17 23:25:00,
2013-02-17 18:30:00,24.6,11.5,30.07,WSW,242,11.0,11.0,57,0.00,,,0.00,Wunderground v.1.15,2013-02-17 23:30:00,
2013-02-17 18:35:00,24.5,10.6,30.07,West,273,13.0,16.0,55,0.00,,,0.00,Wunderground v.1.15,2013-02-17 23:35:00,
2013-02-17 18:40:00,24.5,9.8,30.07,WNW,302,13.0,13.0,53,0.00,,,0.00,Wunderground v.1.15,2013-02-17 23:40:00,
2013-02-17 18:45:00,24.6,9.5,30.08,NNW,335,13.0,13.0,52,0.00,,,0.00,Wunderground v.1.15,2013-02-17 23:45:00,
2013-02-17 18:55:00,24.5,9.4,30.08,WNW,288,12.0,14.0,52,0.00,,,0.00,Wunderground v.1.15,2013-02-17 23:55:00,
2013-02-17 19:00:00,24.4,9.3,30.08,West,262,12.0,20.0,52,0.00,,,0.00,Wunderground v.1.15,2013-02-18 00:00:00,
2013-02-17 19:10:00,24.2,9.1,30.09,West,273,12.0,12.0,52,0.00,,,0.00,Wunderground v.1.15,2013-02-18 00:10:00,
2013-02-17 19:15:00,24.1,8.6,30.09,West,277,12.0,12.0,51,0.00,,,0.00,Wunderground v.1.15,2013-02-18 00:15:00,
2013-02-17 19:20:00,24.0,8.5,30.09,WNW,284,11.0,13.0,51,0.00,,,0.00,Wunderground v.1.15,2013-02-18 00:20:00,
2013-02-17 19:30:00,23.9,8.4,30.09,WNW,298,9.0,9.0,51,0.00,,,0.00,Wunderground v.1.15,2013-02-18 00:30:00,
2013-02-17 19:35:00,23.8,8.3,30.10,West,268,10.0,12.0,51,0.00,,,0.00,Wunderground v.1.15,2013-02-18 00:35:00,
2013-02-17 19:40:00,23.8,8.3,30.10,West,269,9.0,9.0,51,0.00,,,0.00,Wunderground v.1.15,2013-02-18 00:40:00,
2013-02-17 19:45:00,23.7,8.2,30.10,WNW,288,10.0,11.0,51,0.00,,,0.00,Wunderground v.1.15,2013-02-18 00:45:00,
2013-02-17 19:50:00,23.6,8.1,30.10,West,273,9.0,19.0,51,0.00,,,0.00,Wunderground v.1.15,2013-02-18 00:50:00,
2013-02-17 20:00:00,23.6,8.1,30.11,West,261,11.0,11.0,51,0.00,,,0.00,Wunderground v.1.15,2013-02-18 01:00:00,
2013-02-17 20:10:00,23.5,8.4,30.11,WNW,296,9.0,9.0,52,0.00,,,0.00,Wunderground v.1.15,2013-02-18 01:10:00,
2013-02-17 20:15:00,23.5,8.4,30.11,WNW,282,9.0,9.0,52,0.00,,,0.00,Wunderground v.1.15,2013-02-18 01:15:00,
2013-02-17 20:20:00,23.4,8.8,30.12,West,265,7.0,7.0,53,0.00,,,0.00,Wunderground v.1.15,2013-02-18 01:20:00,
2013-02-17 20:25:00,23.3,8.7,30.12,West,279,5.0,10.0,53,0.00,,,0.00,Wunderground v.1.15,2013-02-18 01:25:00,
2013-02-17 20:35:00,23.2,8.6,30.13,NW,326,9.0,9.0,53,0.00,,,0.00,Wunderground v.1.15,2013-02-18 01:35:00,
2013-02-17 20:40:00,23.2,9.0,30.13,NW,312,6.0,6.0,54,0.00,,,0.00,Wunderground v.1.15,2013-02-18 01:40:00,
2013-02-17 20:45:00,23.1,8.9,30.13,West,276,6.0,6.0,54,0.00,,,0.00,Wunderground v.1.15,2013-02-18 01:45:00,
2013-02-17 20:50:00,23.1,8.9,30.13,NNW,340,9.0,9.0,54,0.00,,,0.00,Wunderground v.1.15,2013-02-18 01:50:00,
2013-02-17 20:55:00,23.2,9.0,30.14,WSW,250,10.0,12.0,54,0.00,,,0.00,Wunderground v.1.15,2013-02-18 01:55:00,
2013-02-17 21:00:00,23.2,9.4,30.14,West,281,11.0,11.0,55,0.00,,,0.00,Wunderground v.1.15,2013-02-18 02:00:00,
2013-02-17 21:10:00,23.1,9.3,30.15,NNW,337,9.0,9.0,55,0.00,,,0.00,Wunderground v.1.15,2013-02-18 02:10:00,
2013-02-17 21:15:00,22.9,9.5,30.15,WSW,245,6.0,9.0,56,0.00,,,0.00,Wunderground v.1.15,2013-02-18 02:15:00,
2013-02-17 21:20:00,22.9,9.5,30.16,NW,325,7.0,9.0,56,0.00,,,0.00,Wunderground v.1.15,2013-02-18 02:20:00,
2013-02-17 21:25:00,22.9,9.1,30.16,NW,306,9.0,14.0,55,0.00,,,0.00,Wunderground v.1.15,2013-02-18 02:25:00,
2013-02-17 21:30:00,22.9,9.5,30.16,North,5,9.0,9.0,56,0.00,,,0.00,Wunderground v.1.15,2013-02-18 02:30:00,
2013-02-17 21:35:00,22.8,9.0,30.16,West,268,8.0,9.0,55,0.00,,,0.00,Wunderground v.1.15,2013-02-18 02:35:00,
2013-02-17 21:40:00,22.7,8.9,30.16,WSW,254,7.0,11.0,55,0.00,,,0.00,Wunderground v.1.15,2013-02-18 02:40:00,
2013-02-17 21:45:00,22.6,8.8,30.17,West,260,7.0,11.0,55,0.00,,,0.00,Wunderground v.1.15,2013-02-18 02:45:00,
2013-02-17 21:50:00,22.6,8.8,30.17,WSW,252,7.0,9.0,55,0.00,,,0.00,Wunderground v.1.15,2013-02-18 02:50:00,
2013-02-17 21:55:00,22.5,8.7,30.17,West,271,6.0,9.0,55,0.00,,,0.00,Wunderground v.1.15,2013-02-18 02:55:00,
2013-02-17 22:00:00,22.6,8.4,30.17,NW,304,9.0,9.0,54,0.00,,,0.00,Wunderground v.1.15,2013-02-18 03:00:00,
2013-02-17 22:05:00,22.7,8.5,30.18,West,279,9.0,9.0,54,0.00,,,0.00,Wunderground v.1.15,2013-02-18 03:05:00,
2013-02-17 22:10:00,22.5,8.3,30.18,West,275,6.0,10.0,54,0.00,,,0.00,Wunderground v.1.15,2013-02-18 03:10:00,
2013-02-17 22:15:00,22.6,8.4,30.18,West,274,7.0,10.0,54,0.00,,,0.00,Wunderground v.1.15,2013-02-18 03:15:00,
2013-02-17 22:25:00,22.6,8.0,30.18,WNW,286,7.0,8.0,53,0.00,,,0.00,Wunderground v.1.15,2013-02-18 03:25:00,
2013-02-17 22:30:00,22.6,8.0,30.19,West,275,7.0,7.0,53,0.00,,,0.00,Wunderground v.1.15,2013-02-18 03:30:00,
2013-02-17 22:35:00,22.5,7.9,30.19,NW,316,4.0,7.0,53,0.00,,,0.00,Wunderground v.1.15,2013-02-18 03:35:00,
2013-02-17 22:40:00,22.5,7.9,30.19,NNW,338,5.0,6.0,53,0.00,,,0.00,Wunderground v.1.15,2013-02-18 03:40:00,
2013-02-17 22:45:00,22.5,7.9,30.19,WSW,252,7.0,7.0,53,0.00,,,0.00,Wunderground v.1.15,2013-02-18 03:45:00,
2013-02-17 22:50:00,22.5,7.9,30.19,West,279,7.0,7.0,53,0.00,,,0.00,Wunderground v.1.15,2013-02-18 03:50:00,
2013-02-17 22:55:00,22.4,7.4,30.19,SW,233,6.0,14.0,52,0.00,,,0.00,Wunderground v.1.15,2013-02-18 03:55:00,
2013-02-17 23:00:00,22.5,7.5,30.19,West,268,7.0,7.0,52,0.00,,,0.00,Wunderground v.1.15,2013-02-18 04:00:00,
2013-02-17 23:10:00,22.4,7.0,30.19,NNW,337,7.0,7.0,51,0.00,,,0.00,Wunderground v.1.15,2013-02-18 04:10:00,
2013-02-17 23:15:00,22.4,7.0,30.19,West,275,5.0,7.0,51,0.00,,,0.00,Wunderground v.1.15,2013-02-18 04:15:00,
2013-02-17 23:20:00,22.2,7.2,30.19,WNW,298,3.0,3.0,52,0.00,,,0.00,Wunderground v.1.15,2013-02-18 04:20:00,
2013-02-17 23:25:00,22.2,6.8,30.20,WNW,299,6.0,6.0,51,0.00,,,0.00,Wunderground v.1.15,2013-02-18 04:25:00,
2013-02-17 23:30:00,22.2,6.8,30.20,WNW,288,7.0,7.0,51,0.00,,,0.00,Wunderground v.1.15,2013-02-18 04:30:00,
2013-02-17 23:35:00,22.2,6.8,30.20,West,279,6.0,8.0,51,0.00,,,0.00,Wunderground v.1.15,2013-02-18 04:35:00,
2013-02-17 23:45:00,22.1,6.7,30.20,West,273,6.0,8.0,51,0.00,,,0.00,Wunderground v.1.15,2013-02-18 04:45:00,
2013-02-17 23:50:00,22.0,6.6,30.21,WNW,287,6.0,11.0,51,0.00,,,0.00,Wunderground v.1.15,2013-02-18 04:50:00,
2013-02-17 23:55:00,22.1,6.3,30.21,West,278,8.0,11.0,50,0.00,,,0.00,Wunderground v.1.15,2013-02-18 04:55:00,